sensor_id;sensor_type;location;lat;lon;timestamp;P1;durP1;ratioP1;P2;durP2;ratioP2
25331;SDS011;13284;52.748;13.452;2023-03-20T00:02:23;11.50;;;8.30;;
25331;SDS011;13284;52.748;13.452;2023-03-20T00:04:50;10.00;;;8.20;;
25331;SDS011;13284;52.748;13.452;2023-03-20T00:07:15;11.33;;;9.20;;
25331;SDS011;13284;52.748;13.452;2023-03-20T00:09:41;10.67;;;8.37;;
25331;SDS011;13284;52.748;13.452;2023-03-20T00:12:08;9.97;;;8.97;;
25331;SDS011;13284;52.748;13.452;2023-03-20T00:14:38;11.00;;;9.07;;
25331;SDS011;13284;52.748;13.452;2023-03-20T00:17:08;9.77;;;8.63;;
25331;SDS011;13284;52.748;13.452;2023-03-20T00:19:42;11.77;;;9.20;;
25331;SDS011;13284;52.748;13.452;2023-03-20T00:22:07;11.33;;;9.60;;
25331;SDS011;13284;52.748;13.452;2023-03-20T00:24:33;13.30;;;9.00;;
25331;SDS011;13284;52.748;13.452;2023-03-20T00:26:58;9.87;;;8.87;;
25331;SDS011;13284;52.748;13.452;2023-03-20T00:29:27;9.97;;;8.80;;
25331;SDS011;13284;52.748;13.452;2023-03-20T00:31:55;10.70;;;9.00;;
25331;SDS011;13284;52.748;13.452;2023-03-20T00:34:22;10.97;;;8.80;;
25331;SDS011;13284;52.748;13.452;2023-03-20T00:36:51;11.60;;;8.47;;
25331;SDS011;13284;52.748;13.452;2023-03-20T00:39:17;9.07;;;7.37;;
25331;SDS011;13284;52.748;13.452;2023-03-20T00:41:43;9.50;;;7.40;;
25331;SDS011;13284;52.748;13.452;2023-03-20T00:46:42;8.03;;;6.90;;
25331;SDS011;13284;52.748;13.452;2023-03-20T00:49:11;9.60;;;6.97;;
25331;SDS011;13284;52.748;13.452;2023-03-20T00:51:36;8.63;;;7.17;;
25331;SDS011;13284;52.748;13.452;2023-03-20T00:54:12;7.60;;;6.47;;
25331;SDS011;13284;52.748;13.452;2023-03-20T00:56:44;7.33;;;6.73;;
25331;SDS011;13284;52.748;13.452;2023-03-20T00:59:17;7.93;;;7.10;;
25331;SDS011;13284;52.748;13.452;2023-03-20T01:01:47;8.77;;;7.80;;
25331;SDS011;13284;52.748;13.452;2023-03-20T01:04:13;7.97;;;6.73;;
25331;SDS011;13284;52.748;13.452;2023-03-20T01:06:41;8.63;;;6.97;;
25331;SDS011;13284;52.748;13.452;2023-03-20T01:09:07;8.87;;;7.27;;
25331;SDS011;13284;52.748;13.452;2023-03-20T01:11:32;7.10;;;6.40;;
25331;SDS011;13284;52.748;13.452;2023-03-20T01:13:59;9.80;;;7.40;;
25331;SDS011;13284;52.748;13.452;2023-03-20T01:16:26;10.47;;;7.10;;
25331;SDS011;13284;52.748;13.452;2023-03-20T01:18:51;7.50;;;5.87;;
25331;SDS011;13284;52.748;13.452;2023-03-20T01:21:18;9.27;;;7.00;;
25331;SDS011;13284;52.748;13.452;2023-03-20T01:23:44;8.57;;;7.07;;
25331;SDS011;13284;52.748;13.452;2023-03-20T01:26:30;8.00;;;7.17;;
25331;SDS011;13284;52.748;13.452;2023-03-20T01:29:00;8.80;;;6.40;;
25331;SDS011;13284;52.748;13.452;2023-03-20T01:31:26;8.20;;;7.07;;
25331;SDS011;13284;52.748;13.452;2023-03-20T01:33:52;7.10;;;5.97;;
25331;SDS011;13284;52.748;13.452;2023-03-20T01:36:19;7.23;;;6.53;;
25331;SDS011;13284;52.748;13.452;2023-03-20T01:38:48;8.40;;;7.07;;
25331;SDS011;13284;52.748;13.452;2023-03-20T01:41:18;7.67;;;6.30;;
25331;SDS011;13284;52.748;13.452;2023-03-20T01:43:46;7.23;;;6.50;;
25331;SDS011;13284;52.748;13.452;2023-03-20T01:46:14;9.20;;;7.00;;
25331;SDS011;13284;52.748;13.452;2023-03-20T01:51:16;7.73;;;6.37;;
25331;SDS011;13284;52.748;13.452;2023-03-20T01:53:43;8.50;;;6.20;;
25331;SDS011;13284;52.748;13.452;2023-03-20T01:56:11;7.13;;;6.10;;
25331;SDS011;13284;52.748;13.452;2023-03-20T01:58:40;7.00;;;6.30;;
25331;SDS011;13284;52.748;13.452;2023-03-20T02:01:12;7.43;;;5.73;;
25331;SDS011;13284;52.748;13.452;2023-03-20T02:03:39;6.83;;;5.90;;
25331;SDS011;13284;52.748;13.452;2023-03-20T02:06:09;6.57;;;5.87;;
25331;SDS011;13284;52.748;13.452;2023-03-20T02:08:36;7.63;;;6.10;;
25331;SDS011;13284;52.748;13.452;2023-03-20T02:11:07;6.37;;;5.67;;
25331;SDS011;13284;52.748;13.452;2023-03-20T02:13:33;7.30;;;6.60;;
25331;SDS011;13284;52.748;13.452;2023-03-20T02:16:04;6.30;;;5.53;;
25331;SDS011;13284;52.748;13.452;2023-03-20T02:18:35;9.03;;;6.17;;
25331;SDS011;13284;52.748;13.452;2023-03-20T02:27:05;7.67;;;6.07;;
25331;SDS011;13284;52.748;13.452;2023-03-20T02:29:58;6.57;;;5.97;;
25331;SDS011;13284;52.748;13.452;2023-03-20T02:52:07;6.27;;;5.50;;
25331;SDS011;13284;52.748;13.452;2023-03-20T02:57:49;7.43;;;5.90;;
25331;SDS011;13284;52.748;13.452;2023-03-20T03:02:50;6.10;;;5.50;;
25331;SDS011;13284;52.748;13.452;2023-03-20T03:05:21;8.00;;;6.03;;
25331;SDS011;13284;52.748;13.452;2023-03-20T03:07:52;6.83;;;6.17;;
25331;SDS011;13284;52.748;13.452;2023-03-20T03:10:24;7.00;;;6.30;;
25331;SDS011;13284;52.748;13.452;2023-03-20T03:12:54;5.60;;;5.00;;
25331;SDS011;13284;52.748;13.452;2023-03-20T03:15:33;9.00;;;5.80;;
25331;SDS011;13284;52.748;13.452;2023-03-20T03:18:05;6.50;;;5.60;;
25331;SDS011;13284;52.748;13.452;2023-03-20T03:20:36;7.67;;;5.73;;
25331;SDS011;13284;52.748;13.452;2023-03-20T03:23:03;6.27;;;5.67;;
25331;SDS011;13284;52.748;13.452;2023-03-20T03:25:31;6.20;;;5.60;;
25331;SDS011;13284;52.748;13.452;2023-03-20T03:30:31;6.93;;;6.33;;
25331;SDS011;13284;52.748;13.452;2023-03-20T03:35:33;6.17;;;5.67;;
25331;SDS011;13284;52.748;13.452;2023-03-20T03:38:07;6.30;;;5.27;;
25331;SDS011;13284;52.748;13.452;2023-03-20T03:43:50;6.90;;;6.20;;
25331;SDS011;13284;52.748;13.452;2023-03-20T03:46:30;7.20;;;6.50;;
25331;SDS011;13284;52.748;13.452;2023-03-20T03:49:03;7.60;;;6.00;;
25331;SDS011;13284;52.748;13.452;2023-03-20T03:51:33;6.43;;;5.80;;
25331;SDS011;13284;52.748;13.452;2023-03-20T03:54:02;6.47;;;5.87;;
25331;SDS011;13284;52.748;13.452;2023-03-20T03:56:30;8.00;;;6.30;;
25331;SDS011;13284;52.748;13.452;2023-03-20T03:59:00;6.30;;;5.70;;
25331;SDS011;13284;52.748;13.452;2023-03-20T04:01:29;7.60;;;6.43;;
25331;SDS011;13284;52.748;13.452;2023-03-20T04:03:59;6.23;;;5.63;;
25331;SDS011;13284;52.748;13.452;2023-03-20T04:06:27;7.53;;;6.07;;
25331;SDS011;13284;52.748;13.452;2023-03-20T04:08:53;7.73;;;6.60;;
25331;SDS011;13284;52.748;13.452;2023-03-20T04:11:19;6.63;;;5.90;;
25331;SDS011;13284;52.748;13.452;2023-03-20T04:13:48;6.00;;;5.40;;
25331;SDS011;13284;52.748;13.452;2023-03-20T04:16:15;8.13;;;6.50;;
25331;SDS011;13284;52.748;13.452;2023-03-20T04:18:41;6.97;;;6.23;;
25331;SDS011;13284;52.748;13.452;2023-03-20T04:21:07;8.07;;;6.50;;
25331;SDS011;13284;52.748;13.452;2023-03-20T04:23:33;7.70;;;6.10;;
25331;SDS011;13284;52.748;13.452;2023-03-20T04:25:59;7.13;;;6.30;;
25331;SDS011;13284;52.748;13.452;2023-03-20T04:28:25;7.80;;;6.40;;
25331;SDS011;13284;52.748;13.452;2023-03-20T04:30:55;8.03;;;7.23;;
25331;SDS011;13284;52.748;13.452;2023-03-20T04:33:22;10.53;;;6.90;;
25331;SDS011;13284;52.748;13.452;2023-03-20T04:35:49;13.10;;;7.30;;
25331;SDS011;13284;52.748;13.452;2023-03-20T04:38:15;11.10;;;8.60;;
25331;SDS011;13284;52.748;13.452;2023-03-20T04:40:42;8.17;;;7.00;;
25331;SDS011;13284;52.748;13.452;2023-03-20T04:43:08;8.43;;;7.20;;
25331;SDS011;13284;52.748;13.452;2023-03-20T04:45:34;8.60;;;7.03;;
25331;SDS011;13284;52.748;13.452;2023-03-20T04:47:59;8.03;;;6.80;;
25331;SDS011;13284;52.748;13.452;2023-03-20T04:50:25;11.87;;;9.03;;
25331;SDS011;13284;52.748;13.452;2023-03-20T04:52:51;8.77;;;7.47;;
25331;SDS011;13284;52.748;13.452;2023-03-20T04:55:17;11.33;;;7.60;;
25331;SDS011;13284;52.748;13.452;2023-03-20T04:57:43;11.40;;;8.70;;
25331;SDS011;13284;52.748;13.452;2023-03-20T05:00:08;12.30;;;9.10;;
25331;SDS011;13284;52.748;13.452;2023-03-20T05:02:35;10.90;;;8.00;;
25331;SDS011;13284;52.748;13.452;2023-03-20T05:05:01;11.17;;;8.60;;
25331;SDS011;13284;52.748;13.452;2023-03-20T05:07:26;10.97;;;8.90;;
25331;SDS011;13284;52.748;13.452;2023-03-20T05:09:52;28.60;;;17.50;;
25331;SDS011;13284;52.748;13.452;2023-03-20T05:12:17;15.37;;;11.53;;
25331;SDS011;13284;52.748;13.452;2023-03-20T05:14:43;12.27;;;9.20;;
25331;SDS011;13284;52.748;13.452;2023-03-20T05:17:08;13.13;;;8.40;;
25331;SDS011;13284;52.748;13.452;2023-03-20T05:19:34;12.50;;;9.43;;
25331;SDS011;13284;52.748;13.452;2023-03-20T05:22:00;9.63;;;7.97;;
25331;SDS011;13284;52.748;13.452;2023-03-20T05:24:25;9.27;;;8.33;;
25331;SDS011;13284;52.748;13.452;2023-03-20T05:26:53;12.53;;;9.07;;
25331;SDS011;13284;52.748;13.452;2023-03-20T05:29:19;11.43;;;8.30;;
25331;SDS011;13284;52.748;13.452;2023-03-20T05:31:45;11.20;;;9.33;;
25331;SDS011;13284;52.748;13.452;2023-03-20T05:34:10;14.87;;;10.53;;
25331;SDS011;13284;52.748;13.452;2023-03-20T05:36:36;13.10;;;9.20;;
25331;SDS011;13284;52.748;13.452;2023-03-20T05:39:02;13.03;;;10.57;;
25331;SDS011;13284;52.748;13.452;2023-03-20T05:41:27;13.17;;;8.57;;
25331;SDS011;13284;52.748;13.452;2023-03-20T05:43:53;12.97;;;10.43;;
25331;SDS011;13284;52.748;13.452;2023-03-20T05:46:18;15.73;;;10.67;;
25331;SDS011;13284;52.748;13.452;2023-03-20T05:48:44;14.10;;;10.30;;
25331;SDS011;13284;52.748;13.452;2023-03-20T05:51:09;10.53;;;8.60;;
25331;SDS011;13284;52.748;13.452;2023-03-20T05:53:35;11.47;;;9.10;;
25331;SDS011;13284;52.748;13.452;2023-03-20T05:56:00;12.57;;;8.97;;
25331;SDS011;13284;52.748;13.452;2023-03-20T05:58:26;12.10;;;9.73;;
25331;SDS011;13284;52.748;13.452;2023-03-20T06:00:51;11.63;;;8.53;;
25331;SDS011;13284;52.748;13.452;2023-03-20T06:03:17;14.53;;;9.70;;
25331;SDS011;13284;52.748;13.452;2023-03-20T06:05:43;12.43;;;9.63;;
25331;SDS011;13284;52.748;13.452;2023-03-20T06:08:08;13.60;;;9.80;;
25331;SDS011;13284;52.748;13.452;2023-03-20T06:10:34;13.57;;;9.87;;
25331;SDS011;13284;52.748;13.452;2023-03-20T06:12:59;15.00;;;10.87;;
25331;SDS011;13284;52.748;13.452;2023-03-20T06:15:26;15.43;;;11.20;;
25331;SDS011;13284;52.748;13.452;2023-03-20T06:17:52;15.10;;;10.33;;
25331;SDS011;13284;52.748;13.452;2023-03-20T06:20:19;18.80;;;10.47;;
25331;SDS011;13284;52.748;13.452;2023-03-20T06:22:45;16.90;;;10.67;;
25331;SDS011;13284;52.748;13.452;2023-03-20T06:25:11;16.40;;;11.90;;
25331;SDS011;13284;52.748;13.452;2023-03-20T06:27:36;19.93;;;13.03;;
25331;SDS011;13284;52.748;13.452;2023-03-20T06:30:02;17.63;;;11.87;;
25331;SDS011;13284;52.748;13.452;2023-03-20T06:32:28;21.10;;;13.83;;
25331;SDS011;13284;52.748;13.452;2023-03-20T06:34:54;17.27;;;12.07;;
25331;SDS011;13284;52.748;13.452;2023-03-20T06:37:19;18.57;;;12.27;;
25331;SDS011;13284;52.748;13.452;2023-03-20T06:39:45;22.67;;;13.90;;
25331;SDS011;13284;52.748;13.452;2023-03-20T06:42:11;20.17;;;12.60;;
25331;SDS011;13284;52.748;13.452;2023-03-20T06:44:37;29.07;;;18.10;;
25331;SDS011;13284;52.748;13.452;2023-03-20T06:47:02;27.80;;;15.70;;
25331;SDS011;13284;52.748;13.452;2023-03-20T06:49:28;27.57;;;16.17;;
25331;SDS011;13284;52.748;13.452;2023-03-20T06:51:54;27.53;;;16.00;;
25331;SDS011;13284;52.748;13.452;2023-03-20T06:54:19;28.63;;;16.87;;
25331;SDS011;13284;52.748;13.452;2023-03-20T06:56:45;28.77;;;17.67;;
25331;SDS011;13284;52.748;13.452;2023-03-20T06:59:10;35.93;;;17.03;;
25331;SDS011;13284;52.748;13.452;2023-03-20T07:01:36;32.23;;;18.63;;
25331;SDS011;13284;52.748;13.452;2023-03-20T07:04:02;33.57;;;17.73;;
25331;SDS011;13284;52.748;13.452;2023-03-20T07:06:27;30.70;;;16.27;;
25331;SDS011;13284;52.748;13.452;2023-03-20T07:08:53;28.80;;;16.17;;
25331;SDS011;13284;52.748;13.452;2023-03-20T07:11:18;29.20;;;15.70;;
25331;SDS011;13284;52.748;13.452;2023-03-20T07:13:44;27.83;;;14.90;;
25331;SDS011;13284;52.748;13.452;2023-03-20T07:16:09;28.33;;;15.27;;
25331;SDS011;13284;52.748;13.452;2023-03-20T07:18:35;26.13;;;13.77;;
25331;SDS011;13284;52.748;13.452;2023-03-20T07:21:02;26.63;;;14.63;;
25331;SDS011;13284;52.748;13.452;2023-03-20T07:23:29;25.33;;;13.47;;
25331;SDS011;13284;52.748;13.452;2023-03-20T07:25:54;22.20;;;13.30;;
25331;SDS011;13284;52.748;13.452;2023-03-20T07:28:20;29.30;;;15.97;;
25331;SDS011;13284;52.748;13.452;2023-03-20T07:30:46;30.63;;;15.57;;
25331;SDS011;13284;52.748;13.452;2023-03-20T07:33:11;26.07;;;15.33;;
25331;SDS011;13284;52.748;13.452;2023-03-20T07:35:37;30.30;;;14.33;;
25331;SDS011;13284;52.748;13.452;2023-03-20T07:38:03;24.70;;;13.87;;
25331;SDS011;13284;52.748;13.452;2023-03-20T07:40:29;27.50;;;14.90;;
25331;SDS011;13284;52.748;13.452;2023-03-20T07:42:55;26.00;;;15.87;;
25331;SDS011;13284;52.748;13.452;2023-03-20T07:45:22;27.70;;;15.53;;
25331;SDS011;13284;52.748;13.452;2023-03-20T07:47:47;25.83;;;14.70;;
25331;SDS011;13284;52.748;13.452;2023-03-20T07:50:13;25.90;;;13.80;;
25331;SDS011;13284;52.748;13.452;2023-03-20T07:52:39;31.87;;;14.90;;
25331;SDS011;13284;52.748;13.452;2023-03-20T07:55:05;28.77;;;14.43;;
25331;SDS011;13284;52.748;13.452;2023-03-20T07:57:31;32.13;;;16.37;;
25331;SDS011;13284;52.748;13.452;2023-03-20T07:59:57;25.93;;;14.00;;
25331;SDS011;13284;52.748;13.452;2023-03-20T08:02:22;29.80;;;16.00;;
25331;SDS011;13284;52.748;13.452;2023-03-20T08:04:48;30.67;;;15.80;;
25331;SDS011;13284;52.748;13.452;2023-03-20T08:07:13;30.30;;;16.33;;
25331;SDS011;13284;52.748;13.452;2023-03-20T08:09:39;26.83;;;14.43;;
25331;SDS011;13284;52.748;13.452;2023-03-20T08:12:05;31.40;;;15.13;;
25331;SDS011;13284;52.748;13.452;2023-03-20T08:14:31;29.70;;;14.27;;
25331;SDS011;13284;52.748;13.452;2023-03-20T08:16:56;32.10;;;15.03;;
25331;SDS011;13284;52.748;13.452;2023-03-20T08:19:22;27.40;;;15.40;;
25331;SDS011;13284;52.748;13.452;2023-03-20T08:21:48;26.53;;;14.87;;
25331;SDS011;13284;52.748;13.452;2023-03-20T08:24:15;27.43;;;14.93;;
25331;SDS011;13284;52.748;13.452;2023-03-20T08:26:41;33.87;;;17.67;;
25331;SDS011;13284;52.748;13.452;2023-03-20T08:29:07;32.90;;;16.97;;
25331;SDS011;13284;52.748;13.452;2023-03-20T08:31:33;23.13;;;14.13;;
25331;SDS011;13284;52.748;13.452;2023-03-20T08:33:59;26.63;;;15.07;;
25331;SDS011;13284;52.748;13.452;2023-03-20T08:36:24;29.50;;;13.13;;
25331;SDS011;13284;52.748;13.452;2023-03-20T08:38:50;30.73;;;14.13;;
25331;SDS011;13284;52.748;13.452;2023-03-20T08:41:16;29.10;;;12.97;;
25331;SDS011;13284;52.748;13.452;2023-03-20T08:43:42;28.30;;;15.00;;
25331;SDS011;13284;52.748;13.452;2023-03-20T08:46:07;27.83;;;11.97;;
25331;SDS011;13284;52.748;13.452;2023-03-20T08:48:34;24.43;;;13.03;;
25331;SDS011;13284;52.748;13.452;2023-03-20T08:51:00;28.93;;;14.07;;
25331;SDS011;13284;52.748;13.452;2023-03-20T08:53:26;29.67;;;14.10;;
25331;SDS011;13284;52.748;13.452;2023-03-20T08:55:51;28.50;;;13.47;;
25331;SDS011;13284;52.748;13.452;2023-03-20T08:58:18;32.00;;;15.07;;
25331;SDS011;13284;52.748;13.452;2023-03-20T09:00:44;25.60;;;12.90;;
25331;SDS011;13284;52.748;13.452;2023-03-20T09:03:11;26.27;;;12.60;;
25331;SDS011;13284;52.748;13.452;2023-03-20T09:05:38;29.00;;;12.67;;
25331;SDS011;13284;52.748;13.452;2023-03-20T09:08:06;21.03;;;11.37;;
25331;SDS011;13284;52.748;13.452;2023-03-20T09:10:34;20.40;;;10.20;;
25331;SDS011;13284;52.748;13.452;2023-03-20T09:12:59;19.33;;;11.43;;
25331;SDS011;13284;52.748;13.452;2023-03-20T09:15:25;23.90;;;12.53;;
25331;SDS011;13284;52.748;13.452;2023-03-20T09:17:51;19.77;;;11.43;;
25331;SDS011;13284;52.748;13.452;2023-03-20T09:20:17;21.80;;;11.17;;
25331;SDS011;13284;52.748;13.452;2023-03-20T09:22:43;21.70;;;12.40;;
25331;SDS011;13284;52.748;13.452;2023-03-20T09:25:09;19.90;;;11.13;;
25331;SDS011;13284;52.748;13.452;2023-03-20T09:27:36;20.67;;;11.90;;
25331;SDS011;13284;52.748;13.452;2023-03-20T09:30:02;18.73;;;11.10;;
25331;SDS011;13284;52.748;13.452;2023-03-20T09:32:29;18.87;;;10.60;;
25331;SDS011;13284;52.748;13.452;2023-03-20T09:34:54;20.80;;;12.33;;
25331;SDS011;13284;52.748;13.452;2023-03-20T09:37:20;20.60;;;11.70;;
25331;SDS011;13284;52.748;13.452;2023-03-20T09:39:45;19.07;;;10.97;;
25331;SDS011;13284;52.748;13.452;2023-03-20T09:42:21;20.40;;;11.30;;
25331;SDS011;13284;52.748;13.452;2023-03-20T09:45:08;17.63;;;9.37;;
25331;SDS011;13284;52.748;13.452;2023-03-20T09:47:44;19.07;;;10.43;;
25331;SDS011;13284;52.748;13.452;2023-03-20T09:50:35;19.50;;;10.40;;
25331;SDS011;13284;52.748;13.452;2023-03-20T09:53:10;19.40;;;8.80;;
25331;SDS011;13284;52.748;13.452;2023-03-20T09:55:40;16.60;;;10.37;;
25331;SDS011;13284;52.748;13.452;2023-03-20T10:01:05;18.27;;;9.30;;
25331;SDS011;13284;52.748;13.452;2023-03-20T10:03:38;16.23;;;10.07;;
25331;SDS011;13284;52.748;13.452;2023-03-20T10:06:27;14.93;;;8.80;;
25331;SDS011;13284;52.748;13.452;2023-03-20T10:08:52;15.20;;;8.93;;
25331;SDS011;13284;52.748;13.452;2023-03-20T10:23:17;11.73;;;6.97;;
25331;SDS011;13284;52.748;13.452;2023-03-20T10:25:55;14.30;;;8.57;;
25331;SDS011;13284;52.748;13.452;2023-03-20T10:28:47;10.43;;;6.50;;
25331;SDS011;13284;52.748;13.452;2023-03-20T10:31:27;11.87;;;6.17;;
25331;SDS011;13284;52.748;13.452;2023-03-20T10:34:16;15.13;;;7.43;;
25331;SDS011;13284;52.748;13.452;2023-03-20T10:37:09;10.50;;;5.50;;
25331;SDS011;13284;52.748;13.452;2023-03-20T10:42:38;9.87;;;6.03;;
25331;SDS011;13284;52.748;13.452;2023-03-20T10:45:11;8.77;;;5.90;;
25331;SDS011;13284;52.748;13.452;2023-03-20T10:47:54;6.50;;;3.80;;
25331;SDS011;13284;52.748;13.452;2023-03-20T10:50:30;9.57;;;5.80;;
25331;SDS011;13284;52.748;13.452;2023-03-20T10:53:04;14.30;;;7.90;;
25331;SDS011;13284;52.748;13.452;2023-03-20T10:55:36;9.87;;;5.43;;
25331;SDS011;13284;52.748;13.452;2023-03-20T10:58:20;9.40;;;5.50;;
25331;SDS011;13284;52.748;13.452;2023-03-20T11:00:50;6.80;;;4.60;;
25331;SDS011;13284;52.748;13.452;2023-03-20T11:03:22;8.17;;;5.30;;
25331;SDS011;13284;52.748;13.452;2023-03-20T11:05:51;6.50;;;4.57;;
25331;SDS011;13284;52.748;13.452;2023-03-20T11:08:23;6.57;;;4.93;;
25331;SDS011;13284;52.748;13.452;2023-03-20T11:10:58;9.40;;;5.03;;
25331;SDS011;13284;52.748;13.452;2023-03-20T11:13:26;8.13;;;4.43;;
25331;SDS011;13284;52.748;13.452;2023-03-20T11:16:19;6.53;;;3.90;;
25331;SDS011;13284;52.748;13.452;2023-03-20T11:18:50;6.67;;;4.17;;
25331;SDS011;13284;52.748;13.452;2023-03-20T11:21:25;5.63;;;4.57;;
25331;SDS011;13284;52.748;13.452;2023-03-20T11:23:53;6.63;;;3.87;;
25331;SDS011;13284;52.748;13.452;2023-03-20T11:26:26;7.43;;;4.80;;
25331;SDS011;13284;52.748;13.452;2023-03-20T11:28:57;10.50;;;5.73;;
25331;SDS011;13284;52.748;13.452;2023-03-20T11:31:27;6.60;;;4.53;;
25331;SDS011;13284;52.748;13.452;2023-03-20T11:36:39;7.07;;;4.40;;
25331;SDS011;13284;52.748;13.452;2023-03-20T11:39:23;7.77;;;3.93;;
25331;SDS011;13284;52.748;13.452;2023-03-20T11:41:54;7.50;;;5.17;;
25331;SDS011;13284;52.748;13.452;2023-03-20T11:46:59;9.13;;;4.50;;
25331;SDS011;13284;52.748;13.452;2023-03-20T11:49:27;8.13;;;5.03;;
25331;SDS011;13284;52.748;13.452;2023-03-20T11:51:55;5.90;;;4.30;;
25331;SDS011;13284;52.748;13.452;2023-03-20T11:54:25;7.17;;;4.57;;
25331;SDS011;13284;52.748;13.452;2023-03-20T11:56:55;9.20;;;4.50;;
25331;SDS011;13284;52.748;13.452;2023-03-20T11:59:25;8.13;;;4.70;;
25331;SDS011;13284;52.748;13.452;2023-03-20T12:01:56;7.77;;;4.63;;
25331;SDS011;13284;52.748;13.452;2023-03-20T12:04:27;7.57;;;4.97;;
25331;SDS011;13284;52.748;13.452;2023-03-20T12:07:02;7.90;;;4.67;;
25331;SDS011;13284;52.748;13.452;2023-03-20T12:09:41;7.53;;;4.73;;
25331;SDS011;13284;52.748;13.452;2023-03-20T12:19:40;9.20;;;5.80;;
25331;SDS011;13284;52.748;13.452;2023-03-20T12:22:14;9.57;;;5.30;;
25331;SDS011;13284;52.748;13.452;2023-03-20T12:24:52;9.67;;;6.17;;
25331;SDS011;13284;52.748;13.452;2023-03-20T12:27:27;9.40;;;4.90;;
25331;SDS011;13284;52.748;13.452;2023-03-20T12:29:57;8.63;;;5.43;;
25331;SDS011;13284;52.748;13.452;2023-03-20T12:35:16;8.77;;;4.90;;
25331;SDS011;13284;52.748;13.452;2023-03-20T12:37:56;6.70;;;4.33;;
25331;SDS011;13284;52.748;13.452;2023-03-20T12:40:25;6.77;;;4.83;;
25331;SDS011;13284;52.748;13.452;2023-03-20T12:43:14;9.97;;;5.60;;
25331;SDS011;13284;52.748;13.452;2023-03-20T12:48:53;8.47;;;5.13;;
25331;SDS011;13284;52.748;13.452;2023-03-20T12:51:23;8.37;;;5.10;;
25331;SDS011;13284;52.748;13.452;2023-03-20T12:57:21;13.47;;;6.00;;
25331;SDS011;13284;52.748;13.452;2023-03-20T13:00:23;8.50;;;5.13;;
25331;SDS011;13284;52.748;13.452;2023-03-20T13:03:15;10.10;;;5.90;;
25331;SDS011;13284;52.748;13.452;2023-03-20T13:06:07;10.77;;;5.97;;
25331;SDS011;13284;52.748;13.452;2023-03-20T13:14:42;10.13;;;5.33;;
25331;SDS011;13284;52.748;13.452;2023-03-20T13:17:18;13.10;;;6.03;;
25331;SDS011;13284;52.748;13.452;2023-03-20T13:19:51;8.10;;;5.40;;
25331;SDS011;13284;52.748;13.452;2023-03-20T13:22:43;8.80;;;5.30;;
25331;SDS011;13284;52.748;13.452;2023-03-20T13:39:02;10.37;;;6.20;;
25331;SDS011;13284;52.748;13.452;2023-03-20T13:41:36;8.07;;;4.77;;
25331;SDS011;13284;52.748;13.452;2023-03-20T13:44:03;10.20;;;5.37;;
25331;SDS011;13284;52.748;13.452;2023-03-20T13:46:32;8.80;;;5.17;;
25331;SDS011;13284;52.748;13.452;2023-03-20T13:49:22;11.40;;;6.20;;
25331;SDS011;13284;52.748;13.452;2023-03-20T13:51:58;8.63;;;5.70;;
25331;SDS011;13284;52.748;13.452;2023-03-20T13:54:37;7.83;;;4.97;;
25331;SDS011;13284;52.748;13.452;2023-03-20T13:57:33;8.23;;;5.50;;
25331;SDS011;13284;52.748;13.452;2023-03-20T14:00:24;9.50;;;5.07;;
25331;SDS011;13284;52.748;13.452;2023-03-20T14:03:12;7.70;;;5.10;;
25331;SDS011;13284;52.748;13.452;2023-03-20T14:05:42;11.13;;;6.10;;
25331;SDS011;13284;52.748;13.452;2023-03-20T14:08:22;8.50;;;4.57;;
25331;SDS011;13284;52.748;13.452;2023-03-20T14:11:34;7.47;;;5.57;;
25331;SDS011;13284;52.748;13.452;2023-03-20T14:13:37;10.50;;;5.43;;
25331;SDS011;13284;52.748;13.452;2023-03-20T14:16:07;7.00;;;4.80;;
25331;SDS011;13284;52.748;13.452;2023-03-20T14:18:35;9.90;;;5.37;;
25331;SDS011;13284;52.748;13.452;2023-03-20T14:21:03;10.27;;;6.03;;
25331;SDS011;13284;52.748;13.452;2023-03-20T14:23:42;8.70;;;5.47;;
25331;SDS011;13284;52.748;13.452;2023-03-20T14:28:58;9.50;;;5.70;;
25331;SDS011;13284;52.748;13.452;2023-03-20T14:31:26;9.67;;;5.30;;
25331;SDS011;13284;52.748;13.452;2023-03-20T14:34:12;11.20;;;5.97;;
25331;SDS011;13284;52.748;13.452;2023-03-20T14:36:44;11.20;;;6.20;;
25331;SDS011;13284;52.748;13.452;2023-03-20T14:42:20;11.90;;;5.57;;
25331;SDS011;13284;52.748;13.452;2023-03-20T14:53:08;9.37;;;5.47;;
25331;SDS011;13284;52.748;13.452;2023-03-20T15:01:08;15.30;;;6.50;;
25331;SDS011;13284;52.748;13.452;2023-03-20T15:03:59;9.67;;;6.50;;
25331;SDS011;13284;52.748;13.452;2023-03-20T15:06:56;11.60;;;6.97;;
25331;SDS011;13284;52.748;13.452;2023-03-20T15:09:23;15.80;;;7.83;;
25331;SDS011;13284;52.748;13.452;2023-03-20T15:11:51;10.60;;;6.33;;
25331;SDS011;13284;52.748;13.452;2023-03-20T15:14:19;14.03;;;7.77;;
25331;SDS011;13284;52.748;13.452;2023-03-20T15:16:48;15.07;;;7.43;;
25331;SDS011;13284;52.748;13.452;2023-03-20T15:19:22;12.00;;;6.43;;
25331;SDS011;13284;52.748;13.452;2023-03-20T15:21:47;14.20;;;7.37;;
25331;SDS011;13284;52.748;13.452;2023-03-20T15:24:18;12.90;;;6.10;;
25331;SDS011;13284;52.748;13.452;2023-03-20T15:26:55;11.47;;;7.27;;
25331;SDS011;13284;52.748;13.452;2023-03-20T15:29:23;11.30;;;6.83;;
25331;SDS011;13284;52.748;13.452;2023-03-20T15:31:56;12.50;;;7.70;;
25331;SDS011;13284;52.748;13.452;2023-03-20T15:34:24;11.17;;;6.60;;
25331;SDS011;13284;52.748;13.452;2023-03-20T15:36:54;11.10;;;6.87;;
25331;SDS011;13284;52.748;13.452;2023-03-20T15:39:26;13.77;;;8.20;;
25331;SDS011;13284;52.748;13.452;2023-03-20T15:41:54;12.80;;;6.73;;
25331;SDS011;13284;52.748;13.452;2023-03-20T15:44:24;12.20;;;6.83;;
25331;SDS011;13284;52.748;13.452;2023-03-20T15:46:56;10.20;;;6.30;;
25331;SDS011;13284;52.748;13.452;2023-03-20T15:49:37;12.10;;;7.13;;
25331;SDS011;13284;52.748;13.452;2023-03-20T15:54:57;13.00;;;6.93;;
25331;SDS011;13284;52.748;13.452;2023-03-20T15:57:34;14.30;;;6.77;;
25331;SDS011;13284;52.748;13.452;2023-03-20T16:00:13;12.07;;;7.20;;
25331;SDS011;13284;52.748;13.452;2023-03-20T16:02:43;12.50;;;8.00;;
25331;SDS011;13284;52.748;13.452;2023-03-20T16:05:11;13.40;;;7.40;;
25331;SDS011;13284;52.748;13.452;2023-03-20T16:07:38;11.30;;;6.87;;
25331;SDS011;13284;52.748;13.452;2023-03-20T16:12:58;13.57;;;7.13;;
25331;SDS011;13284;52.748;13.452;2023-03-20T16:15:26;12.33;;;7.30;;
25331;SDS011;13284;52.748;13.452;2023-03-20T16:17:56;11.87;;;6.70;;
25331;SDS011;13284;52.748;13.452;2023-03-20T16:20:24;12.90;;;7.90;;
25331;SDS011;13284;52.748;13.452;2023-03-20T16:22:54;10.80;;;6.70;;
25331;SDS011;13284;52.748;13.452;2023-03-20T16:25:24;10.73;;;8.43;;
25331;SDS011;13284;52.748;13.452;2023-03-20T16:27:49;10.70;;;6.80;;
25331;SDS011;13284;52.748;13.452;2023-03-20T16:30:18;12.30;;;7.00;;
25331;SDS011;13284;52.748;13.452;2023-03-20T16:32:48;10.70;;;6.30;;
25331;SDS011;13284;52.748;13.452;2023-03-20T16:35:24;11.63;;;6.87;;
25331;SDS011;13284;52.748;13.452;2023-03-20T16:37:57;14.00;;;7.97;;
25331;SDS011;13284;52.748;13.452;2023-03-20T16:40:34;12.60;;;7.10;;
25331;SDS011;13284;52.748;13.452;2023-03-20T16:43:17;14.60;;;7.73;;
25331;SDS011;13284;52.748;13.452;2023-03-20T16:45:49;11.37;;;6.53;;
25331;SDS011;13284;52.748;13.452;2023-03-20T16:50:57;11.43;;;7.40;;
25331;SDS011;13284;52.748;13.452;2023-03-20T16:53:26;10.33;;;7.40;;